Time;durP1;ratioP1;P1;durP2;ratioP2;P2;SDS_P1;SDS_P2;PMS_P1;PMS_P2;Temp;Humidity;BMP_temperature;BMP_pressure;BME280_temperature;BME280_humidity;BME280_pressure;Samples;Min_cycle;Max_cycle;Signal;HPM_P1;HPM_P2
2023/02/06 00:02:08;;;;;;;8.27;1.50;;;;;11.00;104125.00;;;;5084419;28;20202;-74
2023/02/06 00:04:36;;;;;;;6.30;1.55;;;;;11.10;104113.00;;;;5068370;28;20677;-75
2023/02/06 00:07:03;;;;;;;5.35;1.15;;;;;11.10;104128.00;;;;5083565;28;20198;-75
2023/02/06 00:09:30;;;;;;;14.82;2.35;;;;;11.10;104115.00;;;;5089376;28;20262;-75
2023/02/06 00:11:58;;;;;;;5.57;1.83;;;;;11.10;104117.00;;;;5085214;28;20267;-75
2023/02/06 00:14:25;;;;;;;9.85;1.60;;;;;11.10;104136.00;;;;5075521;28;20902;-74
2023/02/06 00:16:52;;;;;;;5.63;0.88;;;;;11.20;104121.00;;;;5087523;28;20202;-74
2023/02/06 00:19:21;;;;;;;9.57;1.88;;;;;11.20;104118.00;;;;5082881;28;20202;-74
2023/02/06 00:21:48;;;;;;;10.38;1.85;;;;;11.20;104108.00;;;;5070458;28;20199;-74
2023/02/06 00:24:15;;;;;;;7.70;1.48;;;;;11.20;104108.00;;;;5087708;28;20202;-74
2023/02/06 00:26:43;;;;;;;13.20;2.40;;;;;11.30;104097.00;;;;5088431;28;20198;-74
2023/02/06 00:29:10;;;;;;;9.02;2.03;;;;;11.30;104094.00;;;;5071972;28;20233;-74
2023/02/06 00:31:37;;;;;;;8.48;1.50;;;;;11.30;104094.00;;;;5072274;28;20202;-74
2023/02/06 00:34:05;;;;;;;8.52;2.30;;;;;11.30;104097.00;;;;5076416;28;20195;-74
2023/02/06 00:36:34;;;;;;;5.35;1.02;;;;;11.30;104092.00;;;;5069709;28;20202;-74
2023/02/06 00:39:01;;;;;;;10.15;1.42;;;;;11.30;104093.00;;;;5075031;28;20198;-74
2023/02/06 00:41:29;;;;;;;8.18;1.50;;;;;11.30;104097.00;;;;5086758;28;20198;-74
2023/02/06 00:43:56;;;;;;;7.22;1.58;;;;;11.40;104094.00;;;;5079958;28;20194;-74
2023/02/06 00:46:23;;;;;;;5.70;1.58;;;;;11.40;104094.00;;;;5067432;28;20226;-74
2023/02/06 00:48:51;;;;;;;6.45;1.67;;;;;11.40;104100.00;;;;5079413;28;20229;-74
2023/02/06 00:51:18;;;;;;;7.85;1.40;;;;;11.40;104093.00;;;;5073951;28;20232;-74
2023/02/06 00:53:47;;;;;;;4.38;1.13;;;;;11.40;104099.00;;;;5087865;28;20197;-74
2023/02/06 00:56:14;;;;;;;10.45;2.30;;;;;11.40;104104.00;;;;5081888;28;20230;-74
2023/02/06 00:58:42;;;;;;;6.72;1.10;;;;;11.40;104113.00;;;;5068271;28;20208;-74
2023/02/06 01:01:10;;;;;;;7.30;1.40;;;;;11.40;104113.00;;;;5068998;28;20203;-74
2023/02/06 01:03:37;;;;;;;6.22;1.23;;;;;11.40;104110.00;;;;5086677;28;20194;-74
2023/02/06 01:06:04;;;;;;;13.43;1.42;;;;;11.40;104116.00;;;;5081395;28;20187;-74
2023/02/06 01:08:32;;;;;;;8.38;1.30;;;;;11.40;104114.00;;;;5075404;28;20695;-74
2023/02/06 01:11:00;;;;;;;8.55;1.77;;;;;11.40;104112.00;;;;5087403;28;20190;-74
2023/02/06 01:13:28;;;;;;;10.68;2.53;;;;;11.40;104116.00;;;;5084612;28;20234;-74
2023/02/06 01:15:55;;;;;;;6.90;1.83;;;;;11.40;104123.00;;;;5076182;28;20214;-74
2023/02/06 01:18:22;;;;;;;7.57;1.60;;;;;11.40;104125.00;;;;5085525;28;20203;-74
2023/02/06 01:20:49;;;;;;;4.15;1.33;;;;;11.40;104128.00;;;;5069393;28;20194;-74
2023/02/06 01:23:17;;;;;;;10.15;1.80;;;;;11.40;104133.00;;;;5067600;28;20203;-74
2023/02/06 01:25:44;;;;;;;5.00;1.60;;;;;11.40;104137.00;;;;5066472;28;20748;-74
2023/02/06 01:28:13;;;;;;;8.07;1.48;;;;;11.30;104130.00;;;;5068055;28;20229;-74
2023/02/06 01:30:40;;;;;;;6.22;1.05;;;;;11.30;104121.00;;;;5073696;28;20298;-74
2023/02/06 01:33:07;;;;;;;10.57;1.30;;;;;11.30;104123.00;;;;5076744;28;20203;-74
2023/02/06 01:35:35;;;;;;;7.20;1.65;;;;;11.30;104131.00;;;;5071301;28;20570;-74
2023/02/06 01:38:02;;;;;;;6.97;1.58;;;;;11.30;104127.00;;;;5079304;28;20674;-74
2023/02/06 01:40:29;;;;;;;11.48;1.88;;;;;11.30;104133.00;;;;5086057;28;20182;-75
2023/02/06 01:42:57;;;;;;;11.15;1.30;;;;;11.30;104132.00;;;;5074154;28;20205;-75
2023/02/06 01:45:41;;;;;;;14.63;1.92;;;;;11.20;104127.00;;;;5082879;28;20194;-74
2023/02/06 01:48:14;;;;;;;14.38;2.25;;;;;11.20;104120.00;;;;5073907;28;20232;-74
2023/02/06 01:50:44;;;;;;;8.90;1.58;;;;;11.20;104128.00;;;;5072742;28;20205;-75
2023/02/06 01:53:16;;;;;;;5.32;1.60;;;;;11.20;104124.00;;;;5086869;28;20194;-75
2023/02/06 01:55:45;;;;;;;7.50;2.03;;;;;11.20;104126.00;;;;5086541;28;20218;-74
2023/02/06 01:58:17;;;;;;;6.25;1.55;;;;;11.20;104120.00;;;;5079203;28;20695;-75
2023/02/06 02:00:46;;;;;;;10.90;2.10;;;;;11.20;104119.00;;;;5086420;28;20198;-74
2023/02/06 02:03:13;;;;;;;10.93;1.67;;;;;11.20;104108.00;;;;5078430;28;20195;-75
2023/02/06 02:05:43;;;;;;;9.55;2.13;;;;;11.20;104111.00;;;;5090347;28;20676;-75
2023/02/06 02:08:15;;;;;;;8.13;1.92;;;;;11.20;104111.00;;;;5091357;28;20222;-74
2023/02/06 02:10:43;;;;;;;9.25;2.03;;;;;11.20;104113.00;;;;5084491;28;20187;-74
2023/02/06 02:13:10;;;;;;;10.10;2.42;;;;;11.20;104106.00;;;;5076308;28;20214;-74
2023/02/06 02:15:51;;;;;;;3.95;1.13;;;;;11.10;104103.00;;;;5076426;28;20193;-75
2023/02/06 02:18:31;;;;;;;5.80;1.17;;;;;11.10;104090.00;;;;5089493;28;20221;-75
2023/02/06 02:21:41;;;;;;;7.03;1.27;;;;;11.10;104092.00;;;;5089908;28;20197;-74
2023/02/06 02:24:13;;;;;;;6.68;1.27;;;;;11.10;104091.00;;;;5084127;28;20207;-75
2023/02/06 02:27:02;;;;;;;8.15;1.38;;;;;11.10;104091.00;;;;5088927;28;20202;-75
2023/02/06 02:30:00;;;;;;;6.72;1.20;;;;;11.10;104095.00;;;;5086313;28;20222;-75
2023/02/06 02:33:04;;;;;;;12.85;2.05;;;;;11.10;104091.00;;;;5075794;28;20194;-74
2023/02/06 02:35:48;;;;;;;12.13;1.98;;;;;11.00;104098.00;;;;5087851;28;20209;-75
2023/02/06 02:38:27;;;;;;;8.48;1.70;;;;;11.00;104090.00;;;;5088117;28;20221;-75
2023/02/06 02:41:02;;;;;;;10.00;1.25;;;;;11.10;104083.00;;;;5089564;28;20194;-75
2023/02/06 02:43:38;;;;;;;5.40;1.40;;;;;11.00;104087.00;;;;5087520;28;20200;-75
2023/02/06 02:46:14;;;;;;;7.03;1.70;;;;;11.00;104076.00;;;;5082810;28;20287;-75
2023/02/06 02:48:44;;;;;;;8.07;1.08;;;;;11.00;104082.00;;;;5087859;28;20249;-75
2023/02/06 02:51:13;;;;;;;12.43;1.73;;;;;11.00;104072.00;;;;5089249;28;20194;-75
2023/02/06 02:53:40;;;;;;;5.63;1.30;;;;;11.00;104082.00;;;;5088573;28;20194;-74
2023/02/06 02:56:16;;;;;;;6.10;1.38;;;;;10.90;104083.00;;;;5087600;28;20672;-75
2023/02/06 02:58:46;;;;;;;12.02;1.70;;;;;11.00;104075.00;;;;5088555;28;20194;-75
2023/02/06 03:01:18;;;;;;;6.22;1.10;;;;;10.90;104077.00;;;;5079433;28;20194;-74
2023/02/06 03:03:48;;;;;;;2.92;1.23;;;;;10.90;104070.00;;;;5078361;28;20553;-75
2023/02/06 03:06:51;;;;;;;8.35;1.73;;;;;10.80;104072.00;;;;5081661;28;20206;-75
2023/02/06 03:09:31;;;;;;;5.88;0.93;;;;;10.80;104079.00;;;;5065316;28;20225;-75
2023/02/06 03:12:10;;;;;;;7.57;1.33;;;;;10.80;104070.00;;;;5078900;28;20979;-75
2023/02/06 03:14:45;;;;;;;7.47;1.45;;;;;10.70;104069.00;;;;5081791;28;20195;-74
2023/02/06 03:17:19;;;;;;;5.47;1.20;;;;;10.70;104064.00;;;;5071665;28;20202;-75
2023/02/06 03:19:51;;;;;;;5.78;1.23;;;;;10.70;104060.00;;;;5088831;28;20198;-74
2023/02/06 03:22:21;;;;;;;6.95;1.10;;;;;10.70;104063.00;;;;5083650;28;20195;-74
2023/02/06 03:24:50;;;;;;;5.22;1.17;;;;;10.60;104070.00;;;;5080640;28;20215;-74
2023/02/06 03:27:19;;;;;;;5.40;1.20;;;;;10.60;104067.00;;;;5090115;28;20204;-74
2023/02/06 03:29:50;;;;;;;6.15;1.58;;;;;10.50;104070.00;;;;5074241;28;20221;-74
2023/02/06 03:32:24;;;;;;;4.65;1.58;;;;;10.40;104068.00;;;;5079519;28;20201;-74
2023/02/06 03:34:59;;;;;;;4.78;1.13;;;;;10.40;104067.00;;;;5078492;28;20202;-74
2023/02/06 03:37:28;;;;;;;4.40;1.10;;;;;10.30;104060.00;;;;5089238;28;20205;-74
2023/02/06 03:40:00;;;;;;;4.60;1.55;;;;;10.30;104057.00;;;;5089525;28;20205;-74
2023/02/06 03:42:30;;;;;;;8.30;1.50;;;;;10.20;104060.00;;;;5087314;28;20206;-74
2023/02/06 03:45:03;;;;;;;4.85;1.20;;;;;10.20;104071.00;;;;5088624;28;20740;-74
2023/02/06 03:47:32;;;;;;;5.72;1.38;;;;;10.20;104074.00;;;;5068968;28;20226;-74
2023/02/06 03:50:01;;;;;;;6.65;1.50;;;;;10.10;104069.00;;;;5069287;28;20231;-74
2023/02/06 03:52:35;;;;;;;4.63;1.42;;;;;10.00;104087.00;;;;5080354;28;20202;-74
2023/02/06 03:55:08;;;;;;;4.78;1.00;;;;;10.00;104079.00;;;;5085780;28;20205;-74
2023/02/06 03:57:37;;;;;;;5.70;1.05;;;;;10.00;104077.00;;;;5070748;28;20218;-74
2023/02/06 04:00:05;;;;;;;4.43;1.08;;;;;9.90;104080.00;;;;5068874;28;20213;-74
2023/02/06 04:02:33;;;;;;;4.78;1.17;;;;;9.90;104067.00;;;;5076331;28;20206;-74
2023/02/06 04:05:00;;;;;;;7.20;1.23;;;;;9.80;104075.00;;;;5068401;28;20666;-74
2023/02/06 04:07:31;;;;;;;9.75;1.67;;;;;9.80;104079.00;;;;5084278;28;20198;-74
2023/02/06 04:09:58;;;;;;;10.13;2.05;;;;;9.80;104084.00;;;;5087912;28;20238;-74
2023/02/06 04:12:26;;;;;;;8.98;1.50;;;;;9.70;104082.00;;;;5076321;28;20194;-74
2023/02/06 04:14:53;;;;;;;4.18;1.45;;;;;9.70;104083.00;;;;5080500;28;20199;-74
2023/02/06 04:17:21;;;;;;;7.43;1.58;;;;;9.60;104074.00;;;;5067347;28;20199;-74
2023/02/06 04:19:48;;;;;;;6.18;1.50;;;;;9.60;104068.00;;;;5070137;28;20207;-74
2023/02/06 04:22:16;;;;;;;6.65;1.45;;;;;9.60;104069.00;;;;5075613;28;20202;-74
2023/02/06 04:24:45;;;;;;;4.40;1.30;;;;;9.60;104066.00;;;;5081646;28;20218;-74
2023/02/06 04:27:14;;;;;;;9.13;1.30;;;;;9.50;104071.00;;;;5085055;28;20198;-74
2023/02/06 04:29:41;;;;;;;10.18;1.20;;;;;9.50;104074.00;;;;5071673;28;20237;-74
2023/02/06 04:32:09;;;;;;;8.27;1.27;;;;;9.50;104069.00;;;;5075127;28;20202;-74
2023/02/06 04:34:37;;;;;;;3.38;1.08;;;;;9.50;104071.00;;;;5066948;28;20198;-74
2023/02/06 04:37:05;;;;;;;5.60;1.17;;;;;9.50;104069.00;;;;5075214;28;20206;-74
2023/02/06 04:39:33;;;;;;;3.35;0.90;;;;;9.50;104059.00;;;;5087664;28;20550;-74
2023/02/06 04:42:02;;;;;;;3.15;1.33;;;;;9.50;104064.00;;;;5080794;28;20198;-74
2023/02/06 04:44:29;;;;;;;5.82;1.23;;;;;9.50;104066.00;;;;5087593;28;20233;-74
2023/02/06 04:46:57;;;;;;;8.95;1.52;;;;;9.50;104066.00;;;;5085492;28;20229;-74
2023/02/06 04:49:24;;;;;;;5.10;1.48;;;;;9.40;104071.00;;;;5083551;28;20222;-74
2023/02/06 04:51:51;;;;;;;4.85;0.80;;;;;9.40;104064.00;;;;5067361;28;20245;-74
2023/02/06 04:54:19;;;;;;;4.57;0.80;;;;;9.40;104059.00;;;;5076814;28;20664;-74
2023/02/06 04:56:46;;;;;;;10.88;1.48;;;;;9.40;104069.00;;;;5086653;28;20221;-74
2023/02/06 04:59:15;;;;;;;3.33;0.93;;;;;9.30;104072.00;;;;5084649;28;20209;-75
2023/02/06 05:01:43;;;;;;;7.05;1.40;;;;;9.40;104069.00;;;;5070824;28;20199;-74
2023/02/06 05:04:10;;;;;;;2.60;0.98;;;;;9.30;104076.00;;;;5069657;28;20198;-74
2023/02/06 05:06:37;;;;;;;4.90;1.55;;;;;9.30;104085.00;;;;5070579;28;20187;-74
2023/02/06 05:09:05;;;;;;;6.18;1.38;;;;;9.30;104073.00;;;;5069476;28;20242;-74
2023/02/06 05:11:33;;;;;;;7.53;1.55;;;;;9.30;104078.00;;;;5078526;28;20206;-74
2023/02/06 05:14:01;;;;;;;4.70;1.30;;;;;9.30;104078.00;;;;5087364;28;20202;-74
2023/02/06 05:16:29;;;;;;;7.57;1.83;;;;;9.30;104073.00;;;;5087712;28;20210;-74
2023/02/06 05:18:57;;;;;;;4.53;1.00;;;;;9.30;104082.00;;;;5086187;28;20202;-74
2023/02/06 05:21:25;;;;;;;8.02;1.85;;;;;9.30;104080.00;;;;5080824;28;20195;-74
2023/02/06 05:23:53;;;;;;;15.07;1.98;;;;;9.20;104076.00;;;;5081739;28;21018;-74
2023/02/06 05:26:21;;;;;;;3.95;1.55;;;;;9.20;104082.00;;;;5090305;28;20202;-74
2023/02/06 05:28:48;;;;;;;6.38;1.65;;;;;9.20;104089.00;;;;5089133;28;20206;-74
2023/02/06 05:31:18;;;;;;;6.15;1.23;;;;;9.20;104089.00;;;;5075220;28;20563;-74
2023/02/06 05:33:50;;;;;;;4.63;1.38;;;;;9.20;104086.00;;;;5079283;28;20198;-74
2023/02/06 05:36:18;;;;;;;7.63;1.83;;;;;9.20;104098.00;;;;5089408;28;20699;-74
2023/02/06 05:38:46;;;;;;;4.20;1.08;;;;;9.10;104103.00;;;;5089152;28;20199;-74
2023/02/06 05:41:13;;;;;;;6.78;1.63;;;;;9.10;104095.00;;;;5091925;28;20675;-75
2023/02/06 05:43:40;;;;;;;5.47;1.40;;;;;9.10;104092.00;;;;5089523;28;20206;-74
2023/02/06 05:46:08;;;;;;;4.00;1.00;;;;;9.10;104086.00;;;;5074176;28;20230;-74
2023/02/06 05:48:35;;;;;;;7.65;1.77;;;;;9.10;104099.00;;;;5072428;28;20194;-75
2023/02/06 05:51:04;;;;;;;3.88;1.00;;;;;9.00;104100.00;;;;5091875;28;20233;-74
2023/02/06 05:53:32;;;;;;;8.73;1.10;;;;;9.10;104104.00;;;;5082353;28;20203;-74
2023/02/06 05:56:00;;;;;;;3.55;1.05;;;;;9.10;104100.00;;;;5091405;28;20708;-74
2023/02/06 05:58:28;;;;;;;6.28;1.40;;;;;9.00;104096.00;;;;5091622;28;20186;-74
2023/02/06 06:00:55;;;;;;;4.75;1.35;;;;;9.00;104090.00;;;;5087469;28;20202;-74
2023/02/06 06:03:22;;;;;;;5.15;0.95;;;;;9.00;104086.00;;;;5076314;28;20198;-74
2023/02/06 06:05:52;;;;;;;2.70;1.10;;;;;9.00;104087.00;;;;5084381;28;20597;-74
2023/02/06 06:08:20;;;;;;;6.93;1.48;;;;;9.00;104083.00;;;;5090387;28;20285;-74
2023/02/06 06:10:50;;;;;;;6.60;1.13;;;;;9.00;104083.00;;;;5090708;28;20225;-74
2023/02/06 06:13:18;;;;;;;2.78;1.10;;;;;9.10;104083.00;;;;5090308;28;20198;-74
2023/02/06 06:15:45;;;;;;;5.95;1.30;;;;;9.10;104090.00;;;;5091195;28;20209;-74
2023/02/06 06:18:13;;;;;;;6.00;1.30;;;;;9.10;104093.00;;;;5086360;28;20195;-74
2023/02/06 06:20:41;;;;;;;3.60;1.13;;;;;9.10;104100.00;;;;5071963;28;20195;-74
2023/02/06 06:23:08;;;;;;;5.03;1.55;;;;;9.10;104105.00;;;;5078751;28;20203;-75
2023/02/06 06:25:37;;;;;;;4.25;1.33;;;;;9.10;104103.00;;;;5083236;28;20199;-74
2023/02/06 06:28:05;;;;;;;4.45;1.33;;;;;9.10;104104.00;;;;5091245;28;20194;-74
2023/02/06 06:30:32;;;;;;;4.28;1.42;;;;;9.10;104100.00;;;;5083543;28;20245;-74
2023/02/06 06:32:59;;;;;;;6.43;1.13;;;;;9.10;104102.00;;;;5078237;28;20191;-74
2023/02/06 06:35:27;;;;;;;2.33;1.13;;;;;9.10;104100.00;;;;5088024;28;20205;-75
2023/02/06 06:37:54;;;;;;;5.30;0.95;;;;;9.10;104108.00;;;;5080563;28;20197;-75
2023/02/06 06:40:21;;;;;;;5.63;1.55;;;;;9.20;104107.00;;;;5081099;28;20221;-75
2023/02/06 06:42:50;;;;;;;5.70;1.67;;;;;9.20;104100.00;;;;5078178;28;20199;-75
2023/02/06 06:45:17;;;;;;;4.45;1.23;;;;;9.20;104109.00;;;;5075402;28;20210;-74
2023/02/06 06:47:45;;;;;;;3.67;1.10;;;;;9.20;104100.00;;;;5078727;28;20226;-74
2023/02/06 06:50:12;;;;;;;3.22;1.27;;;;;9.20;104100.00;;;;5079310;28;20222;-76
2023/02/06 06:52:39;;;;;;;8.52;1.42;;;;;9.20;104100.00;;;;5071685;28;20214;-75
2023/02/06 06:55:07;;;;;;;2.88;0.90;;;;;9.30;104092.00;;;;5085361;28;20213;-75
2023/02/06 06:57:34;;;;;;;5.85;1.50;;;;;9.30;104093.00;;;;5082878;28;20223;-75
2023/02/06 07:00:04;;;;;;;3.83;1.10;;;;;9.30;104085.00;;;;5078386;28;20213;-75
2023/02/06 07:02:31;;;;;;;4.95;1.63;;;;;9.30;104076.00;;;;5072521;28;20399;-76
2023/02/06 07:04:59;;;;;;;3.55;1.15;;;;;9.40;104080.00;;;;5073808;28;20203;-76
2023/02/06 07:07:26;;;;;;;4.97;1.65;;;;;9.40;104078.00;;;;5083038;28;20220;-75
2023/02/06 07:09:53;;;;;;;5.68;1.15;;;;;9.40;104081.00;;;;5072449;28;20231;-75
2023/02/06 07:12:21;;;;;;;4.97;1.30;;;;;9.40;104078.00;;;;5090416;28;20207;-75
2023/02/06 07:14:48;;;;;;;3.15;1.40;;;;;9.40;104075.00;;;;5089871;28;20248;-75
2023/02/06 07:17:17;;;;;;;4.18;1.88;;;;;9.40;104073.00;;;;5076990;28;20203;-76
2023/02/06 07:19:46;;;;;;;6.30;1.35;;;;;9.50;104060.00;;;;5081535;28;20255;-76
2023/02/06 07:22:14;;;;;;;5.68;1.63;;;;;9.50;104063.00;;;;5073774;28;20217;-75
2023/02/06 07:24:41;;;;;;;7.32;2.22;;;;;9.50;104062.00;;;;5075607;28;20203;-75
2023/02/06 07:27:10;;;;;;;4.45;2.22;;;;;9.50;104070.00;;;;5069594;28;20218;-75
2023/02/06 07:29:37;;;;;;;5.00;1.55;;;;;9.50;104062.00;;;;5075295;28;20188;-75
2023/02/06 07:32:05;;;;;;;4.53;1.90;;;;;9.50;104052.00;;;;5080337;28;20194;-75
2023/02/06 07:34:34;;;;;;;7.60;2.25;;;;;9.60;104050.00;;;;5088073;28;20197;-75
2023/02/06 07:37:02;;;;;;;6.47;2.20;;;;;9.60;104047.00;;;;5079715;28;20197;-75
2023/02/06 07:39:29;;;;;;;6.18;2.45;;;;;9.60;104039.00;;;;5084575;28;20199;-75
2023/02/06 07:41:56;;;;;;;5.07;2.40;;;;;9.60;104033.00;;;;5080474;28;20574;-75
2023/02/06 07:44:24;;;;;;;5.13;2.38;;;;;9.70;104032.00;;;;5086800;28;20202;-75
2023/02/06 07:46:51;;;;;;;9.05;2.75;;;;;9.70;104038.00;;;;5088039;28;20222;-76
2023/02/06 07:49:19;;;;;;;8.57;3.63;;;;;9.80;104024.00;;;;5080601;28;20202;-75
2023/02/06 07:51:47;;;;;;;7.40;2.88;;;;;9.80;104027.00;;;;5085861;28;20718;-75
2023/02/06 07:54:15;;;;;;;4.28;2.58;;;;;9.80;104033.00;;;;5087609;28;20586;-75
2023/02/06 07:56:42;;;;;;;4.72;2.30;;;;;9.90;104030.00;;;;5087879;28;20221;-76
2023/02/06 07:59:10;;;;;;;5.53;2.78;;;;;9.90;104022.00;;;;5089169;28;20202;-76
2023/02/06 08:01:37;;;;;;;5.30;2.40;;;;;9.90;104021.00;;;;5079985;28;20194;-75
2023/02/06 08:04:05;;;;;;;8.38;2.50;;;;;10.00;104012.00;;;;5081457;28;20205;-76
2023/02/06 08:06:32;;;;;;;7.55;2.70;;;;;10.00;104023.00;;;;5088360;28;20217;-75
2023/02/06 08:09:00;;;;;;;6.05;2.63;;;;;10.00;104016.00;;;;5088867;28;20206;-75
2023/02/06 08:11:29;;;;;;;5.82;2.30;;;;;10.10;104006.00;;;;5074619;28;20222;-76
2023/02/06 08:13:57;;;;;;;4.35;1.67;;;;;10.10;103997.00;;;;5075284;28;20387;-75
2023/02/06 08:16:25;;;;;;;3.97;1.52;;;;;10.20;104001.00;;;;5078204;28;20207;-75
2023/02/06 08:18:52;;;;;;;5.93;1.73;;;;;10.20;103990.00;;;;5076665;28;20213;-76
2023/02/06 08:21:21;;;;;;;4.90;1.60;;;;;10.30;103987.00;;;;5080055;28;20198;-76
2023/02/06 08:23:53;;;;;;;5.00;1.60;;;;;10.30;103974.00;;;;5080142;28;20190;-76
2023/02/06 08:26:22;;;;;;;4.80;1.60;;;;;10.40;103963.00;;;;5086282;28;20198;-76
2023/02/06 08:28:52;;;;;;;5.13;1.60;;;;;10.40;103969.00;;;;5079165;28;20202;-75
2023/02/06 08:31:21;;;;;;;5.30;1.85;;;;;10.50;103981.00;;;;5070786;28;20223;-76
2023/02/06 08:33:49;;;;;;;3.35;1.50;;;;;10.50;103967.00;;;;5067239;28;20746;-76
2023/02/06 08:36:17;;;;;;;10.02;2.00;;;;;10.60;103972.00;;;;5083655;28;20198;-76
2023/02/06 08:38:45;;;;;;;5.82;1.83;;;;;10.60;103973.00;;;;5086904;28;20201;-76
2023/02/06 08:41:18;;;;;;;7.25;1.73;;;;;10.60;103977.00;;;;5081757;28;20191;-76
2023/02/06 08:43:47;;;;;;;4.53;1.20;;;;;10.70;103981.00;;;;5073781;28;20235;-76
2023/02/06 08:46:15;;;;;;;7.38;2.38;;;;;10.80;103982.00;;;;5085065;28;20234;-76
2023/02/06 08:48:43;;;;;;;5.75;1.77;;;;;10.80;103979.00;;;;5086584;28;20248;-76
2023/02/06 08:51:11;;;;;;;3.90;1.73;;;;;10.90;103989.00;;;;5078465;28;20210;-76
2023/02/06 08:53:39;;;;;;;6.53;2.00;;;;;10.90;103990.00;;;;5067758;28;20203;-76
2023/02/06 08:56:08;;;;;;;5.18;1.70;;;;;10.90;103993.00;;;;5086110;28;21093;-76
2023/02/06 08:58:36;;;;;;;5.82;1.88;;;;;11.00;103976.00;;;;5083898;28;20202;-76
2023/02/06 09:01:08;;;;;;;5.80;2.05;;;;;11.00;103987.00;;;;5087078;28;20667;-76
2023/02/06 09:03:35;;;;;;;7.90;1.67;;;;;11.10;103992.00;;;;5090140;28;20680;-76
2023/02/06 09:06:04;;;;;;;5.60;1.63;;;;;11.10;103997.00;;;;5073890;28;20203;-76
2023/02/06 09:08:31;;;;;;;5.05;1.58;;;;;11.20;103992.00;;;;5073869;28;20624;-76
2023/02/06 09:11:06;;;;;;;6.70;1.70;;;;;11.20;103985.00;;;;5090726;28;20210;-76
2023/02/06 09:13:33;;;;;;;5.38;1.40;;;;;11.30;103984.00;;;;5088792;28;20247;-76
2023/02/06 09:16:01;;;;;;;10.27;2.13;;;;;11.30;103995.00;;;;5080092;28;20202;-75
2023/02/06 09:18:30;;;;;;;7.55;2.10;;;;;11.30;103995.00;;;;5082737;28;20190;-76
2023/02/06 09:21:04;;;;;;;5.47;1.73;;;;;11.40;103992.00;;;;5071317;28;20194;-76
2023/02/06 09:23:31;;;;;;;8.82;2.00;;;;;11.50;103991.00;;;;5075424;28;20206;-76
2023/02/06 09:25:59;;;;;;;6.47;1.77;;;;;11.60;103992.00;;;;5074407;28;20195;-76
2023/02/06 09:28:26;;;;;;;5.38;1.60;;;;;11.70;103998.00;;;;5081347;28;20712;-75
2023/02/06 09:30:53;;;;;;;5.50;2.30;;;;;11.80;103991.00;;;;5089402;28;20218;-73
2023/02/06 09:33:21;;;;;;;5.22;1.80;;;;;11.90;103989.00;;;;5085710;28;20205;-73
2023/02/06 09:35:49;;;;;;;5.57;1.92;;;;;11.90;103988.00;;;;5076361;28;20206;-73
2023/02/06 09:38:17;;;;;;;9.38;2.17;;;;;12.00;103996.00;;;;5084569;28;20202;-74
2023/02/06 09:40:44;;;;;;;7.03;1.60;;;;;12.10;103992.00;;;;5073611;28;20679;-74
2023/02/06 09:43:13;;;;;;;6.65;1.40;;;;;12.20;103993.00;;;;5077640;28;20681;-74
2023/02/06 09:45:41;;;;;;;5.25;1.77;;;;;12.30;103999.00;;;;5077090;28;20194;-74
2023/02/06 09:48:17;;;;;;;6.97;1.40;;;;;12.30;104006.00;;;;5090558;28;20556;-74
2023/02/06 09:50:56;;;;;;;7.55;2.08;;;;;12.40;104008.00;;;;5090653;28;20218;-75
2023/02/06 09:53:30;;;;;;;10.32;1.70;;;;;12.50;104018.00;;;;5090155;28;20198;-75
2023/02/06 09:56:02;;;;;;;5.50;1.80;;;;;12.60;104018.00;;;;5083584;28;20229;-75
2023/02/06 09:58:39;;;;;;;4.85;1.63;;;;;12.60;104010.00;;;;5090962;28;20198;-76
2023/02/06 10:01:15;;;;;;;6.45;2.25;;;;;12.70;104006.00;;;;5070780;28;20195;-76
2023/02/06 10:03:58;;;;;;;5.78;1.58;;;;;12.70;104005.00;;;;5081184;28;20679;-76
2023/02/06 10:06:29;;;;;;;6.13;1.40;;;;;12.90;104012.00;;;;5081297;28;20699;-77
2023/02/06 10:09:02;;;;;;;9.65;2.10;;;;;12.90;104014.00;;;;5071464;28;20205;-76
2023/02/06 10:11:40;;;;;;;11.60;2.67;;;;;13.00;104016.00;;;;5086043;28;20718;-76
2023/02/06 10:14:16;;;;;;;5.25;1.38;;;;;13.10;104020.00;;;;5079120;28;20244;-76
2023/02/06 10:16:48;;;;;;;5.63;1.05;;;;;13.20;104020.00;;;;5070168;28;20274;-76
2023/02/06 10:19:21;;;;;;;5.85;1.35;;;;;13.20;104013.00;;;;5072972;28;20206;-76
2023/02/06 10:21:55;;;;;;;10.02;1.40;;;;;13.30;104014.00;;;;5078598;28;20210;-76
2023/02/06 10:24:30;;;;;;;4.30;1.88;;;;;13.30;104007.00;;;;5086606;28;20294;-76
2023/02/06 10:27:01;;;;;;;6.93;1.52;;;;;13.40;104007.00;;;;5083458;28;20209;-76
2023/02/06 10:29:31;;;;;;;2.88;1.25;;;;;13.50;104001.00;;;;5082284;28;20206;-76
2023/02/06 10:32:21;;;;;;;6.93;1.33;;;;;13.40;103996.00;;;;5077468;28;20227;-76
2023/02/06 10:35:10;;;;;;;4.82;1.40;;;;;13.40;104003.00;;;;5071163;28;20203;-76
2023/02/06 10:38:16;;;;;;;4.38;1.08;;;;;13.50;104000.00;;;;5085481;28;20341;-76
2023/02/06 10:40:51;;;;;;;8.90;1.20;;;;;13.60;103998.00;;;;5027616;28;20263;-75
2023/02/06 10:43:28;;;;;;;5.10;1.48;;;;;13.60;104000.00;;;;5087389;28;20210;-76
2023/02/06 10:46:08;;;;;;;10.85;1.35;;;;;13.70;104011.00;;;;5074834;28;20245;-76
2023/02/06 10:48:43;;;;;;;5.05;1.20;;;;;13.70;104012.00;;;;5083926;28;20202;-76
2023/02/06 10:51:19;;;;;;;8.65;1.67;;;;;13.70;104013.00;;;;5076585;28;20229;-76
2023/02/06 10:53:51;;;;;;;7.47;1.67;;;;;13.80;104011.00;;;;5074375;28;20213;-76
2023/02/06 10:56:23;;;;;;;9.25;1.13;;;;;13.90;104016.00;;;;5075862;28;20218;-76
2023/02/06 10:58:54;;;;;;;6.25;1.52;;;;;14.00;104005.00;;;;5076584;28;20412;-76
2023/02/06 11:01:24;;;;;;;4.00;0.90;;;;;14.10;104011.00;;;;5080324;28;20207;-76
2023/02/06 11:03:57;;;;;;;2.63;1.00;;;;;14.10;103998.00;;;;5068504;28;20199;-76
2023/02/06 11:06:27;;;;;;;7.32;1.50;;;;;14.20;104001.00;;;;5083111;28;20277;-76
2023/02/06 11:08:56;;;;;;;4.35;0.90;;;;;14.20;104004.00;;;;5082268;28;20198;-77
2023/02/06 11:11:28;;;;;;;5.05;1.63;;;;;14.30;104016.00;;;;5080572;28;20218;-77
2023/02/06 11:14:10;;;;;;;2.53;0.60;;;;;14.30;104026.00;;;;5080106;28;20205;-77
2023/02/06 11:16:38;;;;;;;3.17;0.73;;;;;14.40;104022.00;;;;5089369;28;20230;-77
2023/02/06 11:19:16;;;;;;;6.43;1.17;;;;;14.40;104014.00;;;;5084097;28;20209;-77
2023/02/06 11:21:51;;;;;;;4.38;0.80;;;;;14.40;104008.00;;;;5087731;28;20248;-77
2023/02/06 11:24:22;;;;;;;6.47;1.15;;;;;14.50;104009.00;;;;5074284;28;20198;-77
2023/02/06 11:26:54;;;;;;;9.35;1.73;;;;;14.50;104004.00;;;;5068969;28;20695;-77
2023/02/06 11:29:24;;;;;;;4.28;0.93;;;;;14.60;103997.00;;;;5072533;28;20203;-77
2023/02/06 11:31:55;;;;;;;6.63;1.27;;;;;14.60;103988.00;;;;5077172;28;20234;-77
2023/02/06 11:34:26;;;;;;;5.30;1.13;;;;;14.70;103990.00;;;;5074067;28;20214;-77
2023/02/06 11:36:55;;;;;;;3.88;1.25;;;;;14.80;103988.00;;;;5086482;28;20194;-77
2023/02/06 11:39:29;;;;;;;8.18;1.63;;;;;14.90;103988.00;;;;5086438;28;20732;-77
2023/02/06 11:41:58;;;;;;;4.40;0.77;;;;;15.00;103987.00;;;;5069244;28;20191;-77
2023/02/06 11:44:27;;;;;;;5.82;0.90;;;;;15.10;103979.00;;;;5074298;28;20282;-77
2023/02/06 11:46:55;;;;;;;5.40;0.88;;;;;15.20;103972.00;;;;5073242;28;20227;-77
2023/02/06 11:49:27;;;;;;;7.97;1.08;;;;;15.20;103977.00;;;;5085380;28;20194;-77
2023/02/06 11:51:58;;;;;;;5.43;1.10;;;;;15.30;103977.00;;;;5086949;28;20253;-77
2023/02/06 11:54:28;;;;;;;4.60;1.50;;;;;15.40;103975.00;;;;5078632;28;20222;-77
2023/02/06 11:57:00;;;;;;;8.57;1.45;;;;;15.50;103965.00;;;;5078059;28;20224;-77
2023/02/06 11:59:28;;;;;;;9.88;1.40;;;;;15.50;103962.00;;;;5088135;28;20194;-77
2023/02/06 12:02:00;;;;;;;4.85;1.02;;;;;15.50;103965.00;;;;5088069;28;20256;-78
2023/02/06 12:04:34;;;;;;;10.40;2.33;;;;;15.50;103968.00;;;;5078770;28;20195;-78
2023/02/06 12:07:06;;;;;;;6.25;1.67;;;;;15.60;103961.00;;;;5069071;28;20193;-77
2023/02/06 12:09:35;;;;;;;6.57;1.00;;;;;15.60;103958.00;;;;5079591;28;20837;-75
2023/02/06 12:12:06;;;;;;;4.72;1.10;;;;;15.70;103960.00;;;;5080287;28;20210;-75
2023/02/06 12:14:40;;;;;;;5.30;1.20;;;;;15.60;103964.00;;;;5081609;28;20186;-75
2023/02/06 12:17:22;;;;;;;5.22;1.17;;;;;15.60;103958.00;;;;5087254;28;20198;-76
2023/02/06 12:19:55;;;;;;;5.40;0.60;;;;;15.70;103958.00;;;;5067773;28;20206;-77
2023/02/06 12:22:25;;;;;;;6.85;1.98;;;;;15.70;103956.00;;;;5074484;28;20206;-77
2023/02/06 12:24:56;;;;;;;5.78;0.80;;;;;15.70;103948.00;;;;5083203;28;20251;-77
2023/02/06 12:27:28;;;;;;;3.88;1.02;;;;;15.70;103949.00;;;;5087046;28;20214;-77